Time;durP1;ratioP1;P1;durP2;ratioP2;P2;SDS_P1;SDS_P2;PMS_P1;PMS_P2;Temp;Humidity;BMP_temperature;BMP_pressure;BME280_temperature;BME280_humidity;BME280_pressure;Samples;Min_cycle;Max_cycle;Signal;HPM_P1;HPM_P2
2023/06/09 00:01:47;;;;;;;3.28;2.58;;;;;;;18.25;76.98;64889.75;5091062;28;20239;-56
2023/06/09 00:04:13;;;;;;;4.88;2.90;;;;;;;18.22;77.36;64889.00;5091223;28;20212;-56
2023/06/09 00:06:39;;;;;;;4.80;3.20;;;;;;;18.18;77.34;64884.59;5091178;28;20611;-56
2023/06/09 00:09:06;;;;;;;4.85;2.75;;;;;;;18.13;77.59;64881.63;5091085;28;20208;-56
2023/06/09 00:11:31;;;;;;;6.07;2.67;;;;;;;18.12;77.52;64880.53;5091225;28;20231;-57
2023/06/09 00:13:57;;;;;;;6.03;3.08;;;;;;;18.02;78.85;64869.50;5090819;28;20211;-58
2023/06/09 00:16:24;;;;;;;7.60;2.95;;;;;;;18.13;76.98;64875.97;5091202;28;20219;-56
2023/06/09 00:18:52;;;;;;;3.70;2.58;;;;;;;18.20;75.75;64883.72;5090896;28;20298;-57
2023/06/09 00:21:21;;;;;;;5.20;3.15;;;;;;;18.11;76.02;64873.78;5091126;28;20208;-60
2023/06/09 00:23:47;;;;;;;4.03;2.88;;;;;;;17.98;77.58;64860.00;5090792;28;20719;-60
2023/06/09 00:26:13;;;;;;;4.60;2.90;;;;;;;17.96;77.40;64859.78;5090973;28;20192;-59
2023/06/09 00:28:39;;;;;;;4.30;3.13;;;;;;;18.10;75.71;64875.75;5091067;28;20212;-59
2023/06/09 00:31:05;;;;;;;4.95;2.70;;;;;;;18.15;76.54;64880.72;5090763;28;20223;-60
2023/06/09 00:33:32;;;;;;;5.40;2.53;;;;;;;18.13;76.04;64876.53;5090049;28;20254;-59
2023/06/09 00:35:57;;;;;;;3.25;2.95;;;;;;;17.97;77.46;64858.91;5090757;28;20251;-59
2023/06/09 00:38:23;;;;;;;4.80;3.08;;;;;;;18.00;76.57;64864.75;5090892;28;20721;-59
2023/06/09 00:40:50;;;;;;;6.38;2.58;;;;;;;17.83;76.35;64846.00;5090702;28;20196;-58
2023/06/09 00:43:15;;;;;;;6.95;2.83;;;;;;;17.76;78.83;64840.28;5090721;28;20222;-60
2023/06/09 00:45:41;;;;;;;4.80;2.72;;;;;;;17.86;79.10;64849.31;5090710;28;20557;-59
2023/06/09 00:48:07;;;;;;;5.57;3.30;;;;;;;17.67;79.85;64828.38;5090421;28;20249;-60
2023/06/09 00:50:33;;;;;;;3.80;2.65;;;;;;;17.63;80.14;64821.41;5090432;28;20251;-59
2023/06/09 00:52:59;;;;;;;3.47;3.13;;;;;;;17.80;80.30;64840.16;5090466;28;20224;-61
2023/06/09 00:55:26;;;;;;;6.28;3.15;;;;;;;17.67;78.73;64830.38;5090361;28;20211;-60
2023/06/09 00:57:55;;;;;;;4.38;3.60;;;;;;;17.60;77.40;64818.09;5090318;28;20635;-58
2023/06/09 01:00:26;;;;;;;9.30;3.30;;;;;;;17.56;78.91;64816.25;5090110;28;20612;-56
2023/06/09 01:03:01;;;;;;;3.22;2.45;;;;;;;17.58;78.46;64821.56;5090375;28;20204;-56
2023/06/09 01:05:32;;;;;;;3.53;2.80;;;;;;;17.53;78.23;64815.50;5090264;28;20237;-56
2023/06/09 01:08:03;;;;;;;5.68;2.67;;;;;;;17.55;76.54;64815.16;5090254;28;20196;-56
2023/06/09 01:10:44;;;;;;;4.43;2.72;;;;;;;17.51;75.92;64808.19;5090255;28;20234;-56
2023/06/09 01:13:15;;;;;;;3.15;2.55;;;;;;;17.31;77.20;64786.13;5090193;28;20247;-59
2023/06/09 01:15:53;;;;;;;8.65;3.30;;;;;;;17.39;76.31;64797.50;5089969;28;20696;-60
2023/06/09 01:18:20;;;;;;;4.88;2.55;;;;;;;17.21;75.83;64777.66;5090165;28;20212;-60
2023/06/09 01:21:06;;;;;;;3.65;2.35;;;;;;;17.20;76.81;64779.66;5090313;28;20295;-59
2023/06/09 01:23:51;;;;;;;3.38;2.70;;;;;;;17.20;76.22;64779.09;5090050;28;20211;-59
2023/06/09 01:26:17;;;;;;;3.65;2.70;;;;;;;17.10;77.86;64763.00;5089992;28;20212;-56
2023/06/09 01:28:44;;;;;;;5.60;2.80;;;;;;;17.17;77.52;64770.72;5089825;28;20226;-56
2023/06/09 01:31:14;;;;;;;3.25;2.60;;;;;;;17.16;78.20;64772.69;5089940;28;20235;-56
2023/06/09 01:33:41;;;;;;;5.18;2.85;;;;;;;17.12;78.44;64767.75;5089762;28;20235;-56
2023/06/09 01:36:07;;;;;;;6.32;2.35;;;;;;;17.16;78.45;64772.69;5090010;28;20201;-57
2023/06/09 01:38:32;;;;;;;3.05;2.33;;;;;;;17.07;78.94;64759.69;5089873;28;20208;-56
2023/06/09 01:40:58;;;;;;;9.00;2.90;;;;;;;17.05;79.18;64762.59;5089572;28;20635;-60
2023/06/09 01:43:23;;;;;;;7.38;2.80;;;;;;;17.16;77.89;64772.16;5089870;28;20295;-56
2023/06/09 01:45:49;;;;;;;3.28;2.88;;;;;;;17.09;78.00;64764.44;5093298;28;20235;-56
2023/06/09 01:48:23;;;;;;;4.15;3.00;;;;;;;17.03;78.31;64755.81;5093354;28;20770;-56
2023/06/09 01:50:58;;;;;;;4.07;2.70;;;;;;;16.95;78.58;64749.03;5093215;28;20219;-57
2023/06/09 01:53:32;;;;;;;5.43;2.95;;;;;;;17.12;77.50;64768.28;5093045;28;20207;-56
2023/06/09 01:56:43;;;;;;;3.38;2.35;;;;;;;16.99;78.67;64750.88;5093468;28;20219;-57
2023/06/09 01:59:13;;;;;;;3.35;2.55;;;;;;;17.13;76.66;64768.84;5082384;28;20723;-56
2023/06/09 02:01:41;;;;;;;5.22;2.95;;;;;;;17.21;75.24;64775.66;5093176;28;20681;-65
2023/06/09 02:04:08;;;;;;;4.97;3.10;;;;;;;17.27;77.23;64784.28;5093034;28;20223;-60
2023/06/09 02:06:35;;;;;;;5.45;2.70;;;;;;;17.08;77.58;64763.34;5093116;28;20199;-59
2023/06/09 02:09:01;;;;;;;3.95;2.63;;;;;;;16.94;78.90;64747.91;5092878;28;20208;-59
2023/06/09 02:11:27;;;;;;;4.72;2.78;;;;;;;16.85;80.39;64741.09;5092991;28;20238;-61
2023/06/09 02:13:53;;;;;;;4.55;2.72;;;;;;;17.05;79.65;64760.03;5093084;28;20284;-60
2023/06/09 02:16:19;;;;;;;6.35;3.15;;;;;;;16.91;79.90;64747.69;5092957;28;20208;-60
2023/06/09 02:18:44;;;;;;;3.78;2.90;;;;;;;16.88;80.98;64741.31;5092802;28;20739;-59
2023/06/09 02:21:10;;;;;;;3.97;2.55;;;;;;;16.79;81.26;64729.41;5092798;28;20282;-59
2023/06/09 02:23:38;;;;;;;3.30;2.40;;;;;;;16.67;80.39;64721.28;5092750;28;20698;-60
2023/06/09 02:26:03;;;;;;;2.38;2.17;;;;;;;16.61;81.35;64712.13;5092404;28;20212;-60
2023/06/09 02:28:29;;;;;;;6.75;2.47;;;;;;;16.50;81.27;64700.56;5092748;28;20303;-55
2023/06/09 02:30:54;;;;;;;4.13;2.15;;;;;;;16.38;81.26;64687.31;5092601;28;20311;-56
2023/06/09 02:33:20;;;;;;;3.20;2.88;;;;;;;16.36;81.66;64687.13;5092454;28;20415;-57
2023/06/09 02:35:45;;;;;;;3.95;2.78;;;;;;;16.44;81.47;64693.38;5092620;28;20200;-57
2023/06/09 02:38:11;;;;;;;2.53;2.33;;;;;;;16.61;81.54;64715.22;5091456;28;20686;-56
2023/06/09 02:40:43;;;;;;;4.40;2.85;;;;;;;16.69;81.27;64721.47;5092550;28;20192;-57
2023/06/09 02:43:09;;;;;;;3.35;3.05;;;;;;;16.69;81.40;64723.47;5092326;28;20219;-58
2023/06/09 02:45:35;;;;;;;2.78;2.17;;;;;;;16.90;80.34;64744.06;5092208;28;20200;-57
2023/06/09 02:48:01;;;;;;;3.63;2.47;;;;;;;16.75;80.65;64727.53;5092285;28;20176;-60
2023/06/09 02:50:27;;;;;;;3.60;2.47;;;;;;;16.73;80.61;64725.34;5092299;28;20306;-59
2023/06/09 02:52:52;;;;;;;4.03;2.60;;;;;;;16.66;80.77;64717.63;5092151;28;20282;-59
2023/06/09 02:55:18;;;;;;;6.35;2.65;;;;;;;16.63;81.23;64714.88;5091642;28;20691;-59
2023/06/09 02:57:45;;;;;;;3.20;2.45;;;;;;;16.53;80.47;64705.84;5092017;28;20208;-59
2023/06/09 03:00:12;;;;;;;4.97;2.85;;;;;;;16.48;77.56;64695.25;5091887;28;20208;-59
2023/06/09 03:02:38;;;;;;;2.97;2.72;;;;;;;16.38;78.52;64684.78;5092168;28;20208;-60
2023/06/09 03:05:07;;;;;;;5.78;2.60;;;;;;;16.12;82.09;64658.69;5091949;28;20341;-59
2023/06/09 03:07:33;;;;;;;5.70;3.10;;;;;;;16.14;82.40;64658.34;5091828;28;20206;-59
2023/06/09 03:09:59;;;;;;;4.43;2.78;;;;;;;16.07;82.23;64650.66;5091710;28;20220;-59
2023/06/09 03:12:25;;;;;;;4.78;2.58;;;;;;;16.01;81.90;64648.59;5091800;28;20253;-60
2023/06/09 03:14:51;;;;;;;4.80;2.67;;;;;;;16.13;81.15;64659.25;5091623;28;20207;-58
2023/06/09 03:17:17;;;;;;;4.93;2.80;;;;;;;15.96;83.04;64644.19;5092077;28;20190;-59
2023/06/09 03:19:42;;;;;;;3.78;2.88;;;;;;;16.22;81.95;64669.19;5091717;28;20216;-60
2023/06/09 03:22:08;;;;;;;4.47;3.30;;;;;;;16.16;78.18;64663.09;5092123;28;20679;-59
2023/06/09 03:24:33;;;;;;;5.28;3.17;;;;;;;16.12;76.24;64658.69;5091616;28;20215;-59
2023/06/09 03:26:59;;;;;;;5.25;3.42;;;;;;;16.05;77.03;64653.56;5091946;28;20208;-59
2023/06/09 03:29:25;;;;;;;7.93;3.20;;;;;;;15.87;79.45;64628.66;5073396;28;20216;-59
2023/06/09 03:31:50;;;;;;;5.40;2.80;;;;;;;15.90;78.12;64635.06;5091376;28;20231;-59
2023/06/09 03:34:16;;;;;;;7.45;4.15;;;;;;;15.91;78.07;64636.16;5090133;28;20204;-57
2023/06/09 03:36:41;;;;;;;3.95;2.47;;;;;;;16.00;80.38;64644.97;5091681;28;20204;-56
2023/06/09 03:39:07;;;;;;;5.55;4.03;;;;;;;16.10;79.98;64655.97;5091465;28;20220;-56
2023/06/09 03:41:33;;;;;;;3.60;2.80;;;;;;;16.12;80.36;64661.25;5091657;28;20204;-56
2023/06/09 03:43:58;;;;;;;6.05;3.03;;;;;;;16.40;76.00;64689.53;5091478;28;20204;-55
2023/06/09 03:46:24;;;;;;;3.95;2.70;;;;;;;16.20;76.15;64666.97;5091495;28;20202;-57
2023/06/09 03:48:49;;;;;;;4.97;3.13;;;;;;;16.25;77.64;64675.56;5091293;28;20568;-57
2023/06/09 03:51:16;;;;;;;5.28;2.92;;;;;;;16.26;76.82;64674.13;5091440;28;20608;-56
2023/06/09 03:53:41;;;;;;;13.18;9.05;;;;;;;16.26;77.62;64673.56;5091242;28;20208;-56
2023/06/09 03:56:07;;;;;;;4.95;3.35;;;;;;;16.38;83.95;64684.78;5091288;28;20203;-56
2023/06/09 03:58:33;;;;;;;4.93;3.08;;;;;;;16.44;76.92;64696.47;5091365;28;20212;-56
2023/06/09 04:00:58;;;;;;;5.57;2.40;;;;;;;16.39;76.93;64687.88;5091339;28;20204;-56
2023/06/09 04:03:24;;;;;;;8.27;2.60;;;;;;;16.25;77.49;64675.56;5091062;28;20204;-57
2023/06/09 04:05:50;;;;;;;3.42;2.63;;;;;;;16.29;78.54;64677.41;5091375;28;20236;-59
2023/06/09 04:08:16;;;;;;;8.73;2.78;;;;;;;16.43;78.45;64692.84;5089965;28;20219;-59
2023/06/09 04:10:41;;;;;;;7.75;2.75;;;;;;;16.43;76.85;64690.28;5072787;28;20220;-59
2023/06/09 04:13:08;;;;;;;3.33;3.03;;;;;;;16.52;76.94;64702.75;5091182;28;20204;-60
2023/06/09 04:15:34;;;;;;;3.33;2.47;;;;;;;16.62;77.69;64711.22;5090998;28;20188;-60
2023/06/09 04:18:01;;;;;;;8.07;2.70;;;;;;;16.67;79.80;64719.28;5090659;28;20207;-59
2023/06/09 04:20:26;;;;;;;4.32;2.88;;;;;;;16.73;79.06;64725.88;5090909;28;20184;-59
2023/06/09 04:22:52;;;;;;;3.63;2.78;;;;;;;16.91;79.70;64745.16;5090967;28;20705;-60
2023/06/09 04:25:28;;;;;;;3.55;2.88;;;;;;;16.89;80.69;64739.88;5090875;28;20200;-59
2023/06/09 04:27:56;;;;;;;7.45;2.83;;;;;;;16.92;78.06;64746.25;5090657;28;20204;-59
2023/06/09 04:30:25;;;;;;;4.97;2.38;;;;;;;16.73;79.32;64727.88;5090659;28;20223;-60
2023/06/09 04:32:54;;;;;;;4.40;2.78;;;;;;;16.95;77.49;64749.56;5072614;28;20200;-60
2023/06/09 04:35:21;;;;;;;6.22;3.00;;;;;;;17.10;78.16;64766.09;5090472;28;20299;-59
2023/06/09 04:37:48;;;;;;;6.50;2.72;;;;;;;17.09;76.89;64767.53;5090750;28;20192;-56
2023/06/09 04:40:21;;;;;;;6.32;2.75;;;;;;;17.10;77.32;64768.63;5090751;28;20681;-57
2023/06/09 04:42:51;;;;;;;7.07;2.47;;;;;;;17.10;76.26;64763.00;5090475;28;20296;-57
2023/06/09 04:45:18;;;;;;;5.82;3.40;;;;;;;16.99;77.63;64756.50;5090643;28;20242;-55
2023/06/09 04:47:46;;;;;;;7.35;3.20;;;;;;;17.03;77.56;64758.38;5090485;28;20212;-56
2023/06/09 04:50:12;;;;;;;4.20;2.97;;;;;;;17.21;76.84;64780.22;5090342;28;20276;-57
2023/06/09 04:52:39;;;;;;;4.43;3.30;;;;;;;17.32;75.76;64790.31;5090257;28;20291;-64
2023/06/09 04:55:12;;;;;;;4.15;3.20;;;;;;;17.27;87.76;64784.28;5090525;28;20204;-61
2023/06/09 04:57:38;;;;;;;5.97;3.78;;;;;;;17.69;88.80;64828.03;5090504;28;20231;-60
2023/06/09 05:00:07;;;;;;;3.38;2.78;;;;;;;17.77;82.24;64838.84;5090315;28;20200;-60
2023/06/09 05:02:33;;;;;;;4.65;2.60;;;;;;;17.83;77.27;64846.00;5090343;28;20219;-60
2023/06/09 05:04:59;;;;;;;4.18;2.63;;;;;;;18.01;90.17;64863.31;5090126;28;20678;-60
2023/06/09 05:07:24;;;;;;;3.63;2.72;;;;;;;18.19;88.96;64883.16;5090537;28;20211;-60
2023/06/09 05:09:49;;;;;;;6.53;3.13;;;;;;;18.26;85.84;64890.84;5090151;28;20192;-60
2023/06/09 05:12:15;;;;;;;4.93;2.55;;;;;;;18.41;85.12;64909.97;5090914;28;20619;-60
2023/06/09 05:14:42;;;;;;;4.07;2.85;;;;;;;18.65;72.30;64932.78;5090092;28;20204;-60
2023/06/09 05:17:07;;;;;;;3.05;2.70;;;;;;;18.50;71.70;64916.81;5090331;28;20211;-61
2023/06/09 05:19:32;;;;;;;3.50;2.50;;;;;;;18.36;71.80;64903.91;5091881;28;20572;-60
2023/06/09 05:21:58;;;;;;;4.80;3.25;;;;;;;18.10;71.79;64875.75;5093523;28;20705;-59
2023/06/09 05:24:23;;;;;;;5.57;2.85;;;;;;;17.86;73.19;64846.75;5093628;28;20261;-60
2023/06/09 05:26:49;;;;;;;4.25;2.30;;;;;;;17.70;75.25;64833.66;5093492;28;20717;-61
2023/06/09 05:29:14;;;;;;;5.95;3.17;;;;;;;18.06;92.07;64873.38;5093452;28;20661;-61
2023/06/09 05:31:40;;;;;;;6.38;3.22;;;;;;;18.29;84.15;64896.72;5093304;28;20235;-59
2023/06/09 05:34:05;;;;;;;4.22;2.90;;;;;;;18.46;72.26;64914.94;5093401;28;20199;-59
2023/06/09 05:36:30;;;;;;;4.00;2.85;;;;;;;18.36;71.67;64904.44;5093674;28;20265;-60
2023/06/09 05:38:56;;;;;;;2.95;2.67;;;;;;;18.14;71.84;64880.19;5093272;28;20597;-60
2023/06/09 05:41:21;;;;;;;5.18;2.72;;;;;;;18.08;71.47;64873.03;5092029;28;20181;-59
2023/06/09 05:43:47;;;;;;;5.80;2.95;;;;;;;18.06;72.88;64868.81;5074438;28;20211;-62
2023/06/09 05:46:12;;;;;;;4.55;2.75;;;;;;;18.25;71.02;64889.75;5093547;28;20638;-60
2023/06/09 05:48:44;;;;;;;6.40;2.67;;;;;;;18.46;70.64;64911.84;5093373;28;20204;-58
2023/06/09 05:51:10;;;;;;;6.53;2.67;;;;;;;18.24;70.99;64891.19;5091299;28;20232;-60
2023/06/09 05:53:35;;;;;;;4.00;3.13;;;;;;;18.37;70.98;64905.00;5074629;28;20580;-59
2023/06/09 05:56:02;;;;;;;4.65;2.75;;;;;;;18.53;69.85;64922.09;5092307;28;20239;-59
2023/06/09 05:58:27;;;;;;;3.22;2.50;;;;;;;18.57;69.02;64926.53;5093093;28;20223;-58
2023/06/09 06:00:57;;;;;;;5.78;3.58;;;;;;;18.54;69.10;64920.66;5093271;28;20200;-60
2023/06/09 06:03:23;;;;;;;4.47;2.63;;;;;;;18.59;69.40;64926.72;5092869;28;20200;-59
2023/06/09 06:05:49;;;;;;;7.10;3.35;;;;;;;18.44;70.50;64910.72;5093219;28;20638;-63
2023/06/09 06:08:14;;;;;;;8.65;2.78;;;;;;;18.22;70.34;64886.44;5092882;28;20200;-59
2023/06/09 06:10:40;;;;;;;7.85;3.55;;;;;;;18.22;70.98;64888.47;5092824;28;20280;-60
2023/06/09 06:13:05;;;;;;;4.45;2.60;;;;;;;18.63;68.61;64933.13;5092917;28;20200;-58
2023/06/09 06:15:31;;;;;;;6.20;3.22;;;;;;;18.75;69.73;64943.81;5092797;28;20689;-61
2023/06/09 06:17:56;;;;;;;4.80;2.95;;;;;;;19.08;84.21;64982.81;5092774;28;20674;-60
2023/06/09 06:20:21;;;;;;;4.53;3.28;;;;;;;19.33;70.15;65010.44;5092900;28;20284;-60
2023/06/09 06:22:47;;;;;;;6.07;3.38;;;;;;;19.34;71.24;65011.53;5092663;28;20295;-61
2023/06/09 06:25:13;;;;;;;11.35;7.63;;;;;;;19.49;79.21;65024.97;5092532;28;20210;-60
2023/06/09 06:27:41;;;;;;;9.80;3.50;;;;;;;19.64;70.36;65047.19;5092331;28;20262;-61
2023/06/09 06:30:08;;;;;;;5.72;3.50;;;;;;;19.86;79.95;65065.81;5091770;28;20295;-61
2023/06/09 06:32:39;;;;;;;7.38;3.42;;;;;;;20.10;66.96;65092.88;5092279;28;20230;-59
2023/06/09 06:35:07;;;;;;;6.57;3.33;;;;;;;19.97;67.20;65078.53;5092765;28;20203;-59
2023/06/09 06:37:33;;;;;;;4.88;3.03;;;;;;;19.78;67.88;65060.09;5092979;28;20200;-60
2023/06/09 06:39:58;;;;;;;8.32;3.55;;;;;;;19.72;68.65;65052.91;5092558;28;20297;-61
2023/06/09 06:42:24;;;;;;;5.97;3.38;;;;;;;19.73;68.17;65054.59;5093000;28;20212;-55
2023/06/09 06:44:49;;;;;;;4.50;3.80;;;;;;;19.84;69.03;65066.72;5092449;28;20264;-56
2023/06/09 06:47:15;;;;;;;5.30;3.60;;;;;;;19.89;68.80;65067.16;5092711;28;20204;-57
2023/06/09 06:49:41;;;;;;;6.88;3.85;;;;;;;20.01;68.77;65082.41;5092414;28;20200;-57
2023/06/09 06:52:06;;;;;;;5.07;3.17;;;;;;;19.86;69.97;65065.81;5092259;28;20698;-57
2023/06/09 06:54:31;;;;;;;8.02;4.07;;;;;;;19.90;70.89;65072.78;5092258;28;20288;-56
2023/06/09 06:56:57;;;;;;;8.63;4.50;;;;;;;19.80;70.81;65062.31;5092172;28;20592;-57
2023/06/09 06:59:22;;;;;;;9.55;3.88;;;;;;;19.82;69.74;65067.06;5092336;28;20200;-56
2023/06/09 07:01:49;;;;;;;8.70;4.40;;;;;;;19.90;70.25;65073.34;5092428;28;20197;-55
2023/06/09 07:04:15;;;;;;;9.13;4.00;;;;;;;19.87;70.00;65069.50;5092074;28;20230;-56
2023/06/09 07:06:40;;;;;;;9.98;4.35;;;;;;;20.10;69.91;65090.31;5091901;28;20592;-57
2023/06/09 07:09:05;;;;;;;8.45;4.25;;;;;;;20.19;68.66;65102.31;5091826;28;20700;-59
2023/06/09 07:11:32;;;;;;;7.05;3.95;;;;;;;20.45;66.68;65130.47;5092066;28;20715;-56
2023/06/09 07:13:57;;;;;;;10.57;4.90;;;;;;;20.64;68.24;65154.03;5092074;28;20196;-56
2023/06/09 07:16:24;;;;;;;11.50;4.15;;;;;;;20.59;67.28;65145.94;5091838;28;20211;-61
2023/06/09 07:18:50;;;;;;;10.27;3.95;;;;;;;20.48;67.11;65134.34;5091592;28;20697;-61
2023/06/09 07:21:16;;;;;;;8.75;4.45;;;;;;;20.60;67.70;65149.63;5091883;28;20296;-60
2023/06/09 07:23:42;;;;;;;5.15;3.95;;;;;;;20.65;66.72;65155.13;5091619;28;20203;-60
2023/06/09 07:26:07;;;;;;;10.98;4.03;;;;;;;20.74;66.58;65162.53;5091821;28;20216;-60
2023/06/09 07:28:32;;;;;;;9.30;4.25;;;;;;;20.72;66.73;65160.88;5091504;28;20584;-60
2023/06/09 07:30:58;;;;;;;7.85;3.83;;;;;;;20.75;65.14;65166.75;5091872;28;20216;-63
2023/06/09 07:33:24;;;;;;;8.73;4.00;;;;;;;20.86;65.69;65176.34;5091507;28;20559;-61
2023/06/09 07:35:50;;;;;;;8.73;4.13;;;;;;;20.89;65.18;65179.09;5091544;28;20563;-60
2023/06/09 07:38:16;;;;;;;12.25;3.97;;;;;;;21.04;65.23;65198.28;5091266;28;20658;-60
2023/06/09 07:40:42;;;;;;;7.95;3.83;;;;;;;21.16;64.60;65208.97;5091583;28;20184;-61
2023/06/09 07:43:07;;;;;;;7.13;3.97;;;;;;;21.25;63.75;65218.38;5091410;28;20204;-60
2023/06/09 07:45:33;;;;;;;7.40;3.88;;;;;;;21.41;63.77;65236.63;5073121;28;20245;-61
2023/06/09 07:47:58;;;;;;;12.57;4.50;;;;;;;21.70;64.42;65268.72;5091237;28;20690;-65
2023/06/09 07:50:24;;;;;;;9.30;4.63;;;;;;;22.14;65.04;65316.84;5091064;28;20640;-60
2023/06/09 07:52:50;;;;;;;8.20;3.92;;;;;;;22.41;64.84;65346.75;5091276;28;20243;-60
2023/06/09 07:55:15;;;;;;;4.28;3.55;;;;;;;22.67;63.82;65375.00;5091246;28;20743;-60
2023/06/09 07:57:42;;;;;;;8.27;3.78;;;;;;;22.77;63.00;65386.06;5091283;28;20203;-61
2023/06/09 08:00:08;;;;;;;10.20;4.13;;;;;;;22.86;61.91;65396.06;5091154;28;20724;-60
2023/06/09 08:02:35;;;;;;;7.75;3.60;;;;;;;22.77;62.50;65386.06;5091129;28;20208;-62
2023/06/09 08:05:01;;;;;;;6.57;4.20;;;;;;;22.73;62.22;65383.66;5091140;28;20200;-61
2023/06/09 08:07:28;;;;;;;4.22;3.53;;;;;;;22.64;60.93;65371.69;5090865;28;20211;-60
2023/06/09 08:09:53;;;;;;;9.48;4.53;;;;;;;23.05;60.81;65417.09;5090924;28;20211;-60
2023/06/09 08:12:18;;;;;;;6.80;4.10;;;;;;;23.38;62.49;65453.09;5091620;28;20208;-60
2023/06/09 08:14:44;;;;;;;6.55;3.28;;;;;;;23.48;61.05;65464.19;5090909;28;20200;-60
2023/06/09 08:17:10;;;;;;;9.75;4.10;;;;;;;23.54;59.73;65470.28;5091157;28;20208;-56
2023/06/09 08:19:36;;;;;;;8.80;3.80;;;;;;;23.68;60.95;65485.78;5090741;28;20200;-57
2023/06/09 08:22:01;;;;;;;5.03;3.90;;;;;;;23.75;61.85;65494.13;5090912;28;20291;-56
2023/06/09 08:24:27;;;;;;;7.72;4.55;;;;;;;23.98;59.72;65519.03;5090671;28;20204;-56
2023/06/09 08:26:52;;;;;;;8.82;4.43;;;;;;;23.81;57.51;65497.63;5090605;28;20225;-57
2023/06/09 08:29:18;;;;;;;9.68;3.97;;;;;;;23.85;57.72;65504.66;5090773;28;20207;-57
2023/06/09 08:31:44;;;;;;;14.73;4.97;;;;;;;23.93;60.02;65511.50;5090860;28;20337;-56
2023/06/09 08:34:09;;;;;;;10.68;4.53;;;;;;;24.02;60.99;65521.47;5090573;28;20237;-57
2023/06/09 08:36:35;;;;;;;10.43;4.10;;;;;;;24.21;60.15;65542.00;5090525;28;20211;-56
2023/06/09 08:39:01;;;;;;;10.82;4.38;;;;;;;24.24;56.74;65547.34;5090520;28;20294;-60
2023/06/09 08:41:28;;;;;;;8.38;4.03;;;;;;;24.26;57.98;65550.09;5090654;28;20557;-61
2023/06/09 08:43:55;;;;;;;7.45;3.95;;;;;;;24.35;57.97;65557.53;5090441;28;20694;-60
2023/06/09 08:46:24;;;;;;;9.60;3.95;;;;;;;24.39;60.23;65564.53;5090630;28;20204;-59
2023/06/09 08:48:53;;;;;;;5.65;3.60;;;;;;;24.64;58.93;65589.69;5090338;28;20215;-60
2023/06/09 08:51:21;;;;;;;7.45;4.00;;;;;;;24.68;58.23;65596.16;5090531;28;20268;-61
2023/06/09 08:53:52;;;;;;;7.57;4.20;;;;;;;24.72;58.06;65603.72;5089766;28;20215;-57
2023/06/09 08:56:21;;;;;;;5.65;4.07;;;;;;;24.90;55.43;65618.56;5090469;28;20211;-56
2023/06/09 08:58:47;;;;;;;5.72;3.85;;;;;;;24.88;55.59;65615.78;5090204;28;20226;-56
2023/06/09 09:01:14;;;;;;;5.88;3.55;;;;;;;25.11;56.90;65643.31;5090466;28;20219;-57
2023/06/09 09:03:40;;;;;;;5.47;3.40;;;;;;;25.28;53.45;65657.56;5090141;28;20658;-58
2023/06/09 09:06:05;;;;;;;7.20;3.78;;;;;;;25.06;54.33;65635.75;5090380;28;20307;-59
2023/06/09 09:08:31;;;;;;;4.95;3.42;;;;;;;25.29;55.03;65660.72;5090424;28;20232;-60
2023/06/09 09:10:56;;;;;;;6.75;3.42;;;;;;;25.61;54.16;65696.78;5090221;28;20222;-58
2023/06/09 09:13:29;;;;;;;5.72;3.42;;;;;;;25.87;53.93;65724.56;5089853;28;20276;-60
2023/06/09 09:15:55;;;;;;;4.45;3.60;;;;;;;26.04;56.49;65740.88;5090182;28;20207;-60
2023/06/09 09:18:20;;;;;;;7.47;4.07;;;;;;;25.77;53.90;65717.16;5090086;28;20212;-61
2023/06/09 09:20:46;;;;;;;6.35;3.60;;;;;;;25.89;52.69;65726.78;5071833;28;20641;-61
2023/06/09 09:23:12;;;;;;;5.35;3.95;;;;;;;25.86;52.81;65724.00;5090064;28;20226;-62
2023/06/09 09:25:38;;;;;;;4.05;3.40;;;;;;;26.49;53.66;65794.00;5090174;28;20630;-61
2023/06/09 09:28:08;;;;;;;6.78;4.05;;;;;;;26.32;50.08;65777.16;5090006;28;20264;-60
2023/06/09 09:30:50;;;;;;;5.35;3.20;;;;;;;26.54;49.54;65796.41;5089986;28;20212;-61
2023/06/09 09:33:20;;;;;;;7.13;3.78;;;;;;;26.60;49.09;65808.25;5090116;28;20211;-61
2023/06/09 09:35:48;;;;;;;10.75;3.72;;;;;;;26.36;48.76;65776.97;5090069;28;20192;-60
2023/06/09 09:38:16;;;;;;;5.32;3.30;;;;;;;26.18;50.92;65762.16;5090017;28;20237;-61
2023/06/09 09:40:48;;;;;;;5.05;3.20;;;;;;;26.46;49.91;65790.13;5071733;28;20212;-61
2023/06/09 09:43:14;;;;;;;3.40;3.10;;;;;;;26.38;51.20;65781.78;5089692;28;20677;-57
2023/06/09 09:45:43;;;;;;;4.80;3.20;;;;;;;26.40;48.23;65784.00;5089778;28;20222;-58
2023/06/09 09:48:11;;;;;;;6.63;3.92;;;;;;;26.61;47.50;65809.38;5089835;28;20712;-57
2023/06/09 09:50:44;;;;;;;4.35;3.30;;;;;;;26.63;48.34;65809.56;5089926;28;20269;-55
2023/06/09 09:53:10;;;;;;;6.60;3.20;;;;;;;27.35;49.03;65888.53;5089710;28;20708;-58
2023/06/09 09:55:38;;;;;;;6.45;3.10;;;;;;;27.72;45.50;65932.25;5089580;28;20188;-61
2023/06/09 09:58:06;;;;;;;8.73;3.50;;;;;;;27.75;45.45;65935.03;5089852;28;20238;-57
2023/06/09 10:00:36;;;;;;;4.13;3.50;;;;;;;27.55;44.55;65908.16;5089598;28;20198;-55
2023/06/09 10:03:09;;;;;;;8.98;3.75;;;;;;;27.37;43.26;65891.28;5089468;28;20200;-56
2023/06/09 10:05:39;;;;;;;5.15;3.28;;;;;;;26.79;44.13;65829.38;5090153;28;20246;-58
2023/06/09 10:08:05;;;;;;;4.85;3.40;;;;;;;26.09;45.97;65749.56;5092864;28;20200;-58
2023/06/09 10:10:32;;;;;;;6.13;3.55;;;;;;;26.59;44.93;65802.53;5092716;28;20235;-56
2023/06/09 10:12:58;;;;;;;5.03;3.47;;;;;;;26.89;47.69;65834.75;5092700;28;20203;-57
2023/06/09 10:15:24;;;;;;;7.95;3.70;;;;;;;27.38;44.24;65894.44;5092651;28;20192;-60
2023/06/09 10:17:53;;;;;;;4.15;3.22;;;;;;;27.58;44.35;65916.69;5092785;28;20208;-56
2023/06/09 10:20:19;;;;;;;5.05;3.08;;;;;;;27.85;42.66;65946.72;5092640;28;20204;-60
2023/06/09 10:22:46;;;;;;;5.38;3.08;;;;;;;27.92;42.78;65954.50;5074430;28;20272;-59
2023/06/09 10:25:12;;;;;;;8.48;2.90;;;;;;;28.14;42.58;65976.38;5092532;28;20208;-56
2023/06/09 10:27:38;;;;;;;5.75;3.47;;;;;;;27.84;41.21;65943.00;5092683;28;20212;-58
2023/06/09 10:30:05;;;;;;;4.18;2.70;;;;;;;28.20;44.33;65983.06;5074311;28;20227;-57
2023/06/09 10:32:34;;;;;;;7.03;3.00;;;;;;;28.73;42.58;66043.53;5092673;28;20204;-57
2023/06/09 10:35:02;;;;;;;4.47;3.05;;;;;;;29.17;44.08;66089.97;5092351;28;20435;-57
2023/06/09 10:37:32;;;;;;;4.95;3.42;;;;;;;27.94;40.98;65951.53;5092312;28;20211;-57
2023/06/09 10:40:12;;;;;;;7.88;3.72;;;;;;;27.59;41.89;65917.81;5092185;28;20208;-57
2023/06/09 10:42:58;;;;;;;8.98;3.45;;;;;;;27.03;42.15;65853.47;5092597;28;20208;-57
2023/06/09 10:45:47;;;;;;;5.97;3.88;;;;;;;27.35;40.16;65888.53;5092214;28;20565;-57
2023/06/09 10:48:12;;;;;;;5.25;3.40;;;;;;;27.41;40.70;65892.59;5092197;28;20574;-57
2023/06/09 10:50:38;;;;;;;4.95;3.47;;;;;;;27.94;39.60;65956.72;5092157;28;20212;-57
2023/06/09 10:53:21;;;;;;;4.90;3.05;;;;;;;28.56;39.79;66022.59;5092313;28;20214;-57
2023/06/09 10:55:46;;;;;;;9.10;3.95;;;;;;;29.11;39.22;66083.25;5092411;28;20216;-57
2023/06/09 10:58:36;;;;;;;3.92;3.20;;;;;;;29.18;38.77;66091.09;5090797;28;20215;-57
2023/06/09 11:01:07;;;;;;;5.50;3.30;;;;;;;28.16;39.85;65981.22;5074067;28;20275;-57
2023/06/09 11:03:32;;;;;;;6.53;3.63;;;;;;;27.88;40.62;65947.44;5092431;28;20251;-60
2023/06/09 11:06:00;;;;;;;4.47;3.70;;;;;;;28.90;38.25;66059.88;5092096;28;20243;-57
2023/06/09 11:08:26;;;;;;;5.50;3.55;;;;;;;29.15;38.27;66085.13;5092173;28;20208;-56
2023/06/09 11:10:51;;;;;;;5.78;3.60;;;;;;;29.02;39.71;66071.22;5092126;28;20307;-56
2023/06/09 11:13:39;;;;;;;4.47;3.33;;;;;;;29.87;39.17;66167.41;5091969;28;20657;-60
2023/06/09 11:16:05;;;;;;;7.07;3.95;;;;;;;29.46;38.34;66121.69;5091743;28;20212;-60
2023/06/09 11:18:31;;;;;;;5.68;3.33;;;;;;;29.61;41.12;66138.97;5091619;28;20210;-59
2023/06/09 11:21:10;;;;;;;4.40;3.70;;;;;;;29.92;38.67;66172.97;5092232;28;20242;-61
2023/06/09 11:24:00;;;;;;;4.22;3.78;;;;;;;28.91;40.85;66061.56;5091985;28;20702;-61
2023/06/09 11:26:26;;;;;;;7.47;4.07;;;;;;;28.71;40.88;66038.72;5091882;28;20248;-58
2023/06/09 11:28:52;;;;;;;8.38;3.13;;;;;;;28.16;40.98;65980.66;5091499;28;20214;-58
2023/06/09 11:31:17;;;;;;;5.40;4.70;;;;;;;28.21;41.87;65986.22;5091667;28;20259;-57
2023/06/09 11:33:51;;;;;;;5.65;4.32;;;;;;;28.06;42.03;65970.09;5091467;28;20211;-57
2023/06/09 11:36:22;;;;;;;5.82;4.55;;;;;;;28.99;43.27;66070.47;5091805;28;20222;-57